createdAt,value
2019-01-19T00:01:46.069Z,2.43
2019-01-19T00:04:35.543Z,2.47
2019-01-19T00:07:43.393Z,2.52
2019-01-19T00:10:34.879Z,2.63
2019-01-19T00:13:43.434Z,2.75
2019-01-19T00:20:15.113Z,3.28
2019-01-19T00:23:02.496Z,3.17
2019-01-19T00:26:27.053Z,3.12
2019-01-19T00:29:32.685Z,3.11
2019-01-19T00:32:23.994Z,3.17
2019-01-19T00:35:42.969Z,3.18
2019-01-19T00:38:33.491Z,3.15
2019-01-19T00:41:49.366Z,3.12
2019-01-19T00:44:45.711Z,3.11
2019-01-19T00:47:26.619Z,3.13
2019-01-19T00:50:01.901Z,3.17
2019-01-19T00:52:53.006Z,3.33
2019-01-19T00:55:32.036Z,3.40
2019-01-19T00:58:07.458Z,3.47
2019-01-19T01:00:48.133Z,3.51
2019-01-19T01:03:35.907Z,3.50
2019-01-19T01:06:34.992Z,3.48
2019-01-19T01:09:28.352Z,3.44
2019-01-19T01:12:15.249Z,3.42
2019-01-19T01:15:10.704Z,3.33
2019-01-19T01:17:43.527Z,3.70
2019-01-19T01:20:36.806Z,3.52
2019-01-19T01:23:40.191Z,3.32
2019-01-19T01:26:58.553Z,3.17
2019-01-19T01:30:23.735Z,2.98
2019-01-19T01:33:11.975Z,2.89
2019-01-19T01:35:57.135Z,2.77
2019-01-19T01:38:35.760Z,2.78
2019-01-19T01:41:16.184Z,3.14
2019-01-19T01:44:21.418Z,3.08
2019-01-19T01:47:32.076Z,2.83
2019-01-19T01:50:30.602Z,2.62
2019-01-19T01:53:33.325Z,2.59
2019-01-19T01:56:19.287Z,2.58
2019-01-19T01:59:24.544Z,2.55
2019-01-19T02:01:58.827Z,2.53
2019-01-19T02:04:49.515Z,2.95
2019-01-19T02:07:30.180Z,3.43
2019-01-19T02:10:06.243Z,3.86
2019-01-19T02:12:53.887Z,3.56
2019-01-19T02:15:29.530Z,4.05
2019-01-19T02:18:07.757Z,4.40
2019-01-19T02:21:10.000Z,4.37
2019-01-19T02:23:49.302Z,4.44
2019-01-19T02:26:56.374Z,4.30
2019-01-19T02:29:47.464Z,3.94
2019-01-19T02:32:34.965Z,4.00
2019-01-19T02:35:20.529Z,3.94
2019-01-19T02:37:56.329Z,3.97
2019-01-19T02:40:33.169Z,3.48
2019-01-19T02:43:17.887Z,3.11
2019-01-19T02:46:11.372Z,3.24
2019-01-19T02:48:56.901Z,3.68
2019-01-19T02:51:40.631Z,3.51
2019-01-19T02:54:25.415Z,3.54
2019-01-19T02:57:18.036Z,3.79
2019-01-19T03:00:14.634Z,3.49
2019-01-19T03:02:50.689Z,3.37
2019-01-19T03:05:26.836Z,3.20
2019-01-19T03:07:59.929Z,3.26
2019-01-19T03:10:50.281Z,3.25
2019-01-19T03:13:42.468Z,2.85
2019-01-19T03:16:52.112Z,3.05
2019-01-19T03:19:35.105Z,2.74
2019-01-19T03:22:34.387Z,2.91
2019-01-19T03:25:28.551Z,3.08
2019-01-19T03:28:30.143Z,3.13
2019-01-19T03:31:31.521Z,3.50
2019-01-19T03:34:21.388Z,3.09
2019-01-19T03:37:04.346Z,2.76
2019-01-19T03:40:13.095Z,2.56
2019-01-19T03:43:04.690Z,2.45
2019-01-19T03:46:10.852Z,2.47
2019-01-19T03:49:16.366Z,2.46
2019-01-19T03:52:12.507Z,2.47
2019-01-19T03:55:03.767Z,2.32
2019-01-19T03:57:59.555Z,2.33
2019-01-19T04:01:12.791Z,2.36
2019-01-19T04:04:19.678Z,2.46
2019-01-19T04:07:19.874Z,2.36
2019-01-19T04:10:01.332Z,2.27
2019-01-19T04:12:37.351Z,2.16
2019-01-19T04:15:24.972Z,2.14
2019-01-19T04:17:57.659Z,2.32
2019-01-19T04:20:48.659Z,2.18
2019-01-19T04:23:29.759Z,2.23
2019-01-19T04:26:04.583Z,2.10
2019-01-19T04:28:38.852Z,1.93
2019-01-19T04:31:08.772Z,1.83
2019-01-19T04:33:38.548Z,1.87
2019-01-19T04:36:09.582Z,1.96
2019-01-19T04:38:42.124Z,2.14
2019-01-19T04:41:19.158Z,2.27
2019-01-19T04:43:58.156Z,2.35
2019-01-19T04:46:28.388Z,2.47
2019-01-19T04:48:58.145Z,2.49
2019-01-19T04:51:27.932Z,2.50
2019-01-19T04:54:04.475Z,2.54
2019-01-19T04:56:39.700Z,2.73
2019-01-19T04:59:10.889Z,2.82
2019-01-19T05:01:45.323Z,2.75
2019-01-19T05:04:20.073Z,2.82
2019-01-19T05:06:58.719Z,2.75
2019-01-19T05:09:30.881Z,2.86
2019-01-19T05:12:13.197Z,2.80
2019-01-19T05:14:48.309Z,2.78
2019-01-19T05:17:32.846Z,2.76
2019-01-19T05:20:07.222Z,2.76
2019-01-19T05:22:38.785Z,2.73
2019-01-19T05:25:13.044Z,2.70
2019-01-19T05:27:42.813Z,2.61
2019-01-19T05:30:16.287Z,2.62
2019-01-19T05:33:04.403Z,2.68
2019-01-19T05:35:36.093Z,2.65
2019-01-19T05:38:10.259Z,2.60
2019-01-19T05:40:44.054Z,2.49
2019-01-19T05:43:16.236Z,2.53
2019-01-19T05:45:46.124Z,2.54
2019-01-19T05:48:23.367Z,2.67
2019-01-19T05:51:03.973Z,2.82
2019-01-19T05:53:40.963Z,2.84
2019-01-19T05:56:10.810Z,3.29
2019-01-19T05:58:58.157Z,3.69
2019-01-19T06:01:29.137Z,4.13
2019-01-19T06:04:10.591Z,4.50
2019-01-19T06:06:46.766Z,4.64
2019-01-19T06:09:19.812Z,4.25
2019-01-19T06:11:59.915Z,3.52
2019-01-19T06:14:52.234Z,3.12
2019-01-19T06:17:30.721Z,2.92
2019-01-19T06:20:06.860Z,2.70
2019-01-19T06:22:46.482Z,2.76
2019-01-19T06:25:37.265Z,2.97
2019-01-19T06:28:19.595Z,3.89
2019-01-19T06:30:50.594Z,4.45
2019-01-19T06:33:27.041Z,4.35
2019-01-19T06:36:06.707Z,4.82
2019-01-19T06:38:42.708Z,5.18
2019-01-19T06:41:26.615Z,5.13
2019-01-19T06:44:04.046Z,4.93
2019-01-19T06:47:09.610Z,4.63
2019-01-19T06:53:13.074Z,3.71
2019-01-19T06:56:09.506Z,3.45
2019-01-19T06:58:36.883Z,3.29
2019-01-19T07:03:55.277Z,3.29
2019-01-19T07:06:46.903Z,3.48
2019-01-19T07:09:22.181Z,3.27
2019-01-19T07:15:37.763Z,2.89
2019-01-19T07:18:49.963Z,2.85
2019-01-19T07:21:53.993Z,2.53
2019-01-19T07:24:50.498Z,2.30
2019-01-19T07:27:39.295Z,2.34
2019-01-19T07:30:21.881Z,2.63
2019-01-19T07:33:20.166Z,2.66
2019-01-19T07:35:53.866Z,2.81
2019-01-19T07:38:26.943Z,2.91
2019-01-19T07:41:08.325Z,3.01
2019-01-19T07:44:15.711Z,3.30
2019-01-19T07:47:01.730Z,3.35
2019-01-19T07:49:38.135Z,3.66
2019-01-19T07:52:38.338Z,3.91
2019-01-19T07:55:47.181Z,4.00
2019-01-19T07:58:38.599Z,4.02
2019-01-19T08:01:29.257Z,4.11
2019-01-19T08:04:25.696Z,4.16
2019-01-19T08:07:19.053Z,4.15
2019-01-19T08:10:06.176Z,4.35
2019-01-19T08:12:52.298Z,4.42
2019-01-19T08:15:42.846Z,4.36
2019-01-19T08:18:33.347Z,4.52
2019-01-19T08:21:26.207Z,4.60
2019-01-19T08:24:13.339Z,4.70
2019-01-19T08:27:05.953Z,4.89
2019-01-19T08:30:20.001Z,5.26
2019-01-19T08:33:22.293Z,5.58
2019-01-19T08:36:07.927Z,5.80
2019-01-19T08:39:11.881Z,6.34
2019-01-19T08:42:03.002Z,6.75
2019-01-19T08:45:08.361Z,7.33
2019-01-19T08:47:52.122Z,7.81
2019-01-19T08:50:46.763Z,8.18
2019-01-19T08:54:04.650Z,8.46
2019-01-19T08:56:42.228Z,8.78
2019-01-19T08:59:22.403Z,9.44
2019-01-19T09:02:14.900Z,9.98
2019-01-19T09:05:18.683Z,10.36
2019-01-19T09:08:54.745Z,10.55
2019-01-19T09:14:45.086Z,10.17
2019-01-19T09:17:55.557Z,10.54
2019-01-19T09:20:48.434Z,10.22
2019-01-19T09:23:59.609Z,9.73
2019-01-19T09:27:05.926Z,9.41
2019-01-19T09:30:19.519Z,8.93
2019-01-19T09:33:18.871Z,8.58
2019-01-19T09:36:20.273Z,8.42
2019-01-19T09:39:15.759Z,8.30
2019-01-19T09:41:58.061Z,8.12
2019-01-19T09:44:33.486Z,7.93
2019-01-19T09:47:29.264Z,7.98
2019-01-19T09:50:46.431Z,7.93
2019-01-19T09:53:42.918Z,8.16
2019-01-19T09:56:51.161Z,8.58
2019-01-19T09:59:35.012Z,9.39
2019-01-19T10:02:25.131Z,10.23
2019-01-19T10:05:16.112Z,11.55
2019-01-19T10:07:58.989Z,11.78
2019-01-19T10:10:39.193Z,12.48
2019-01-19T10:17:03.556Z,11.40
2019-01-19T10:19:41.312Z,11.30
2019-01-19T10:22:28.583Z,11.72
2019-01-19T10:25:09.437Z,11.32
2019-01-19T10:27:53.986Z,11.69
2019-01-19T10:30:32.719Z,11.87
2019-01-19T10:33:15.167Z,12.12
2019-01-19T10:36:17.587Z,12.09
2019-01-19T10:38:52.982Z,11.45
2019-01-19T10:41:28.255Z,11.77
2019-01-19T10:44:13.032Z,12.70
2019-01-19T10:47:05.470Z,13.22
2019-01-19T10:50:15.125Z,13.00
2019-01-19T10:53:29.493Z,12.42
2019-01-19T10:59:22.399Z,11.52
2019-01-19T11:02:29.664Z,11.13
2019-01-19T11:05:16.689Z,10.82
2019-01-19T11:07:53.645Z,10.66
2019-01-19T11:10:49.818Z,11.31
2019-01-19T11:16:31.364Z,12.51
2019-01-19T11:19:22.514Z,12.10
2019-01-19T11:22:23.337Z,11.55
2019-01-19T11:25:34.202Z,11.62
2019-01-19T11:28:11.132Z,11.74
2019-01-19T11:30:48.872Z,12.02
2019-01-19T11:33:28.903Z,12.34
2019-01-19T11:36:09.533Z,12.39
2019-01-19T11:38:56.931Z,11.54
2019-01-19T11:41:34.232Z,10.40
2019-01-19T11:44:11.979Z,9.83
2019-01-19T11:47:01.297Z,9.40
2019-01-19T11:49:49.122Z,9.41
2019-01-19T11:52:30.764Z,9.42
2019-01-19T11:55:28.670Z,9.01
2019-01-19T11:58:04.594Z,9.27
2019-01-19T12:00:52.807Z,9.56
2019-01-19T12:06:57.641Z,9.03
2019-01-19T12:09:46.229Z,8.86
2019-01-19T12:12:44.823Z,8.73
2019-01-19T12:15:34.833Z,8.75
2019-01-19T12:18:18.235Z,8.78
2019-01-19T12:20:53.721Z,8.74
2019-01-19T12:23:27.216Z,9.18
2019-01-19T12:26:16.222Z,10.00
2019-01-19T12:29:12.568Z,10.79
2019-01-19T12:31:53.640Z,10.97
2019-01-19T12:34:34.907Z,10.47
2019-01-19T12:37:32.586Z,10.31
2019-01-19T12:40:30.710Z,10.29
2019-01-19T12:43:37.137Z,10.18
2019-01-19T12:46:27.551Z,9.99
2019-01-19T12:49:07.307Z,9.83
2019-01-19T12:51:52.186Z,9.60
2019-01-19T12:54:45.912Z,9.61
2019-01-19T12:57:33.424Z,9.77
2019-01-19T13:00:22.591Z,9.71
2019-01-19T13:03:25.967Z,9.88
2019-01-19T13:09:24.494Z,10.04
2019-01-19T13:12:34.508Z,9.75
2019-01-19T13:15:33.007Z,9.44
2019-01-19T13:18:47.324Z,9.34
2019-01-19T13:22:01.448Z,9.38
2019-01-19T13:25:25.178Z,9.28
2019-01-19T13:28:43.237Z,9.28
2019-01-19T13:35:06.860Z,9.73
2019-01-19T13:38:06.991Z,10.25
2019-01-19T13:40:57.718Z,10.85
2019-01-19T13:44:07.424Z,11.24
2019-01-19T13:47:03.016Z,10.59
2019-01-19T13:50:15.830Z,10.71
2019-01-19T13:52:59.496Z,10.72
2019-01-19T13:55:36.373Z,10.88
2019-01-19T13:58:16.205Z,10.77
2019-01-19T14:01:09.304Z,10.32
2019-01-19T14:04:07.866Z,10.03
2019-01-19T14:07:28.717Z,9.93
2019-01-19T14:10:48.445Z,9.94
2019-01-19T14:14:11.761Z,9.95
2019-01-19T14:17:22.272Z,9.80
2019-01-19T14:20:27.879Z,9.62
2019-01-19T14:23:31.617Z,9.87
2019-01-19T14:26:16.005Z,9.55
2019-01-19T14:29:03.975Z,9.44
2019-01-19T14:31:50.924Z,9.27
2019-01-19T14:35:04.365Z,9.09
2019-01-19T14:42:07.209Z,8.91
2019-01-19T14:45:04.931Z,8.80
2019-01-19T14:47:55.592Z,8.80
2019-01-19T14:50:37.914Z,8.86
2019-01-19T14:53:54.274Z,8.83
2019-01-19T14:57:15.506Z,8.85
2019-01-19T15:00:29.605Z,8.76
2019-01-19T15:03:33.014Z,8.72
2019-01-19T15:06:18.623Z,8.58
2019-01-19T15:09:21.713Z,8.58
2019-01-19T15:12:30.052Z,8.51
2019-01-19T15:15:43.164Z,8.41
2019-01-19T15:18:47.722Z,8.30
2019-01-19T15:21:37.428Z,8.25
2019-01-19T15:24:26.589Z,8.37
2019-01-19T15:27:21.609Z,8.14
2019-01-19T15:30:25.099Z,7.99
2019-01-19T15:33:08.060Z,8.00
2019-01-19T15:36:11.739Z,7.92
2019-01-19T15:38:51.260Z,7.84
2019-01-19T15:41:50.073Z,7.74
2019-01-19T15:44:45.747Z,7.79
2019-01-19T15:47:42.166Z,7.70
2019-01-19T15:50:57.565Z,7.64
2019-01-19T15:54:06.682Z,7.53
2019-01-19T15:57:13.695Z,7.46
2019-01-19T16:00:19.977Z,7.42
2019-01-19T16:03:15.973Z,7.35
2019-01-19T16:06:27.673Z,7.38
2019-01-19T16:09:30.887Z,7.33
2019-01-19T16:12:14.423Z,7.35
2019-01-19T16:15:02.229Z,7.40
2019-01-19T16:17:51.085Z,7.49
2019-01-19T16:20:47.169Z,7.39
2019-01-19T16:23:35.818Z,7.25
2019-01-19T16:26:24.138Z,7.16
2019-01-19T16:29:12.564Z,7.13
2019-01-19T16:32:15.505Z,7.07
2019-01-19T16:35:09.416Z,6.98
2019-01-19T16:37:47.814Z,6.96
2019-01-19T16:40:48.793Z,6.92
2019-01-19T16:43:33.450Z,6.85
2019-01-19T16:46:32.990Z,6.83
2019-01-19T16:49:24.900Z,6.82
2019-01-19T16:52:22.610Z,6.73
2019-01-19T16:55:04.754Z,6.60
2019-01-19T16:57:52.930Z,6.55
2019-01-19T17:00:55.816Z,6.48
2019-01-19T17:03:45.525Z,6.37
2019-01-19T17:09:52.842Z,6.31
2019-01-19T17:12:45.020Z,6.25
2019-01-19T17:15:50.693Z,6.20
2019-01-19T17:19:11.371Z,6.15
2019-01-19T17:22:17.920Z,6.21
2019-01-19T17:25:18.664Z,6.16
2019-01-19T17:36:01.241Z,6.01
2019-01-19T17:39:20.728Z,5.95
2019-01-19T17:42:33.642Z,5.88
2019-01-19T17:46:08.591Z,5.84
2019-01-19T17:49:09.840Z,5.78
2019-01-19T17:52:21.983Z,5.86
2019-01-19T17:55:16.987Z,5.96
2019-01-19T17:57:59.418Z,5.82
2019-01-19T18:01:03.207Z,5.68
2019-01-19T18:03:57.916Z,5.58
2019-01-19T18:06:45.602Z,5.46
2019-01-19T18:10:03.819Z,5.53
2019-01-19T18:13:34.631Z,5.68
2019-01-19T18:20:31.766Z,5.64
2019-01-19T18:24:12.953Z,5.80
2019-01-19T18:27:02.198Z,5.84
2019-01-19T18:30:22.448Z,5.82
2019-01-19T18:33:37.403Z,5.83
2019-01-19T18:36:19.543Z,5.91
2019-01-19T18:39:10.483Z,6.06
2019-01-19T18:42:13.409Z,5.97
2019-01-19T18:45:06.814Z,5.97
2019-01-19T18:48:18.625Z,6.04
2019-01-19T18:50:54.462Z,5.96
2019-01-19T18:54:06.130Z,5.91
2019-01-19T18:57:19.248Z,5.90
2019-01-19T19:00:03.095Z,5.90
2019-01-19T19:03:25.617Z,5.86
2019-01-19T19:06:32.631Z,5.81
2019-01-19T19:09:42.205Z,5.76
2019-01-19T19:12:22.794Z,5.84
2019-01-19T19:15:33.835Z,5.87
2019-01-19T19:18:22.967Z,5.67
2019-01-19T19:21:15.873Z,5.74
2019-01-19T19:24:03.425Z,5.68
2019-01-19T19:26:47.759Z,5.49
2019-01-19T19:29:29.434Z,5.30
2019-01-19T19:39:25.310Z,5.12
2019-01-19T19:42:18.150Z,4.99
2019-01-19T19:45:52.867Z,4.91
2019-01-19T19:48:56.074Z,4.80
2019-01-19T19:52:07.340Z,4.59
2019-01-19T19:54:55.065Z,4.49
2019-01-19T19:57:32.373Z,4.41
2019-01-19T20:00:08.208Z,4.25
2019-01-19T20:02:45.666Z,4.11
2019-01-19T20:05:31.440Z,4.62
2019-01-19T20:08:15.527Z,4.98
2019-01-19T20:10:55.092Z,4.97
2019-01-19T20:13:30.685Z,4.69
2019-01-19T20:16:39.639Z,4.50
2019-01-19T20:19:25.781Z,4.40
2019-01-19T20:22:50.107Z,4.29
2019-01-19T20:28:59.733Z,4.20
2019-01-19T20:32:12.575Z,4.00
2019-01-19T20:34:58.126Z,3.88
2019-01-19T20:37:38.385Z,3.91
2019-01-19T20:40:35.703Z,3.83
2019-01-19T20:43:10.660Z,3.97
2019-01-19T20:45:53.901Z,4.38
2019-01-19T20:48:31.394Z,4.45
2019-01-19T20:51:32.257Z,4.35
2019-01-19T20:54:08.758Z,4.31
2019-01-19T20:56:45.101Z,4.24
2019-01-19T21:02:18.155Z,4.28
2019-01-19T21:04:56.441Z,4.26
2019-01-19T21:07:38.549Z,4.29
2019-01-19T21:10:49.891Z,4.38
2019-01-19T21:13:22.070Z,4.43
2019-01-19T21:15:55.974Z,4.50
2019-01-19T21:18:28.760Z,4.50
2019-01-19T21:24:50.230Z,4.58
2019-01-19T21:28:10.660Z,4.63
2019-01-19T21:31:04.553Z,4.67
2019-01-19T21:33:53.393Z,4.58
2019-01-19T21:36:31.988Z,4.55
2019-01-19T21:42:09.272Z,4.31
2019-01-19T21:44:52.501Z,4.05
2019-01-19T21:47:53.068Z,3.91
2019-01-19T21:53:44.399Z,3.63
2019-01-19T21:56:42.013Z,3.49
2019-01-19T22:00:05.084Z,3.37
2019-01-19T22:03:25.775Z,3.51
2019-01-19T22:06:24.043Z,3.43
2019-01-19T22:09:19.162Z,3.50
2019-01-19T22:12:09.729Z,3.24
2019-01-19T22:14:48.665Z,3.24
2019-01-19T22:17:44.242Z,3.15
2019-01-19T22:20:44.667Z,3.08
2019-01-19T22:23:55.594Z,3.02
2019-01-19T22:26:54.440Z,3.02
2019-01-19T22:30:02.579Z,2.90
2019-01-19T22:32:43.248Z,2.95
2019-01-19T22:35:17.608Z,2.84
2019-01-19T22:38:27.051Z,2.81
2019-01-19T22:41:37.661Z,2.78
2019-01-19T22:44:14.750Z,2.82
2019-01-19T22:50:27.323Z,2.66
2019-01-19T22:53:01.112Z,2.88
2019-01-19T22:55:40.899Z,3.01
2019-01-19T22:58:24.915Z,2.79
2019-01-19T23:01:15.063Z,2.74
2019-01-19T23:03:48.301Z,2.65
2019-01-19T23:06:42.828Z,2.62
2019-01-19T23:09:23.848Z,2.66
2019-01-19T23:12:36.645Z,2.65
2019-01-19T23:15:33.794Z,2.59
2019-01-19T23:18:27.300Z,2.45
2019-01-19T23:21:31.447Z,2.42
2019-01-19T23:24:43.127Z,2.42
2019-01-19T23:27:54.096Z,2.35
2019-01-19T23:31:00.599Z,2.25
2019-01-19T23:33:37.221Z,2.55
2019-01-19T23:36:15.229Z,2.88
2019-01-19T23:38:59.246Z,2.71
2019-01-19T23:41:32.470Z,2.58
2019-01-19T23:44:13.852Z,2.52
2019-01-19T23:47:00.793Z,2.49
2019-01-19T23:50:05.381Z,2.45
2019-01-19T23:52:44.720Z,2.38
2019-01-19T23:56:00.179Z,2.36
2019-01-19T23:59:18.287Z,2.41
